createdAt,value
2017-11-22T00:00:06.817Z,3.30
2017-11-22T00:02:38.448Z,2.70
2017-11-22T00:05:09.297Z,2.83
2017-11-22T00:07:40.167Z,2.70
2017-11-22T00:10:11.021Z,2.80
2017-11-22T00:12:41.863Z,3.00
2017-11-22T00:15:12.701Z,2.30
2017-11-22T00:17:43.567Z,2.87
2017-11-22T00:20:14.409Z,2.37
2017-11-22T00:22:45.300Z,3.00
2017-11-22T00:25:16.159Z,2.30
2017-11-22T00:27:47.006Z,2.70
2017-11-22T00:30:17.841Z,2.90
2017-11-22T00:32:48.722Z,3.10
2017-11-22T00:35:19.553Z,3.00
2017-11-22T00:37:50.407Z,2.83
2017-11-22T00:40:21.245Z,2.83
2017-11-22T00:42:52.112Z,2.50
2017-11-22T00:45:22.953Z,3.03
2017-11-22T00:47:53.801Z,2.83
2017-11-22T00:50:24.624Z,3.00
2017-11-22T00:52:55.492Z,3.20
2017-11-22T00:55:26.339Z,2.30
2017-11-22T00:57:57.204Z,2.87
2017-11-22T01:00:28.072Z,2.70
2017-11-22T01:02:58.940Z,2.77
2017-11-22T01:05:29.792Z,2.50
2017-11-22T01:08:00.649Z,2.73
2017-11-22T01:10:31.501Z,2.80
2017-11-22T01:13:02.352Z,3.10
2017-11-22T01:15:33.187Z,3.00
2017-11-22T01:18:04.061Z,3.40
2017-11-22T01:20:34.925Z,2.90
2017-11-22T01:23:05.857Z,2.97
2017-11-22T01:25:36.693Z,3.20
2017-11-22T01:28:07.545Z,3.20
2017-11-22T01:30:38.396Z,2.40
2017-11-22T01:33:09.234Z,3.20
2017-11-22T01:35:40.071Z,2.57
2017-11-22T01:38:10.925Z,2.50
2017-11-22T01:40:41.777Z,2.70
2017-11-22T01:43:12.629Z,3.07
2017-11-22T01:45:43.495Z,2.90
2017-11-22T01:48:14.344Z,2.83
2017-11-22T01:50:45.205Z,3.00
2017-11-22T01:53:16.071Z,2.60
2017-11-22T01:55:46.934Z,2.43
2017-11-22T01:58:17.792Z,2.80
2017-11-22T02:00:48.644Z,2.70
2017-11-22T02:03:19.497Z,2.30
2017-11-22T02:05:50.357Z,2.80
2017-11-22T02:08:21.233Z,2.70
2017-11-22T02:10:52.083Z,2.70
2017-11-22T02:13:22.942Z,2.30
2017-11-22T02:15:53.773Z,2.53
2017-11-22T02:18:24.633Z,2.57
2017-11-22T02:20:55.625Z,2.40
2017-11-22T02:23:26.461Z,3.05
2017-11-22T02:25:57.308Z,2.80
2017-11-22T02:28:28.162Z,2.63
2017-11-22T02:30:59.013Z,2.63
2017-11-22T02:33:29.872Z,2.17
2017-11-22T02:36:00.713Z,2.83
2017-11-22T02:38:31.551Z,3.37
2017-11-22T02:41:02.437Z,2.60
2017-11-22T02:43:33.270Z,2.63
2017-11-22T02:46:04.125Z,2.47
2017-11-22T02:48:34.999Z,2.70
2017-11-22T02:51:05.840Z,2.27
2017-11-22T02:53:36.689Z,3.00
2017-11-22T02:56:07.555Z,2.17
2017-11-22T02:58:38.413Z,2.40
2017-11-22T03:01:09.257Z,3.17
2017-11-22T03:03:40.125Z,2.70
2017-11-22T03:06:10.953Z,2.70
2017-11-22T03:08:41.805Z,3.10
2017-11-22T03:11:12.752Z,2.73
2017-11-22T03:13:43.588Z,2.60
2017-11-22T03:16:14.429Z,2.70
2017-11-22T03:18:45.301Z,2.10
2017-11-22T03:21:16.174Z,2.27
2017-11-22T03:23:47.042Z,2.80
2017-11-22T03:26:17.890Z,2.40
2017-11-22T03:28:48.717Z,2.50
2017-11-22T03:31:19.550Z,1.90
2017-11-22T03:33:50.397Z,2.70
2017-11-22T03:36:21.237Z,2.20
2017-11-22T03:38:52.416Z,2.40
2017-11-22T03:41:23.246Z,2.10
2017-11-22T03:43:54.173Z,2.30
2017-11-22T03:46:25.053Z,2.53
2017-11-22T03:48:55.911Z,2.30
2017-11-22T03:51:26.753Z,2.90
2017-11-22T03:53:57.597Z,1.90
2017-11-22T03:56:28.429Z,2.60
2017-11-22T03:58:59.285Z,2.60
2017-11-22T04:01:30.133Z,2.37
2017-11-22T04:04:00.992Z,2.00
2017-11-22T04:06:31.826Z,2.50
2017-11-22T04:09:02.694Z,2.47
2017-11-22T04:11:33.524Z,1.97
2017-11-22T04:14:04.357Z,2.27
2017-11-22T04:16:35.165Z,2.63
2017-11-22T04:19:06.046Z,2.20
2017-11-22T04:21:36.883Z,2.77
2017-11-22T04:24:07.751Z,2.10
2017-11-22T04:26:38.612Z,2.47
2017-11-22T04:29:09.452Z,2.00
2017-11-22T04:31:40.318Z,1.93
2017-11-22T04:34:11.165Z,2.17
2017-11-22T04:36:42.036Z,2.53
2017-11-22T04:39:12.864Z,2.20
2017-11-22T04:41:43.733Z,2.23
2017-11-22T04:44:14.580Z,1.73
2017-11-22T04:46:45.440Z,1.73
2017-11-22T04:49:16.284Z,2.03
2017-11-22T04:51:47.145Z,1.93
2017-11-22T04:54:18.000Z,2.10
2017-11-22T04:56:48.860Z,2.00
2017-11-22T04:59:19.708Z,2.10
2017-11-22T05:01:50.562Z,2.17
2017-11-22T05:04:21.420Z,1.80
2017-11-22T05:06:52.265Z,2.50
2017-11-22T05:09:23.124Z,2.40
2017-11-22T05:11:53.987Z,2.00
2017-11-22T05:14:24.831Z,2.40
2017-11-22T05:16:55.659Z,2.30
2017-11-22T05:19:26.501Z,1.83
2017-11-22T05:21:57.331Z,1.97
2017-11-22T05:24:28.178Z,1.87
2017-11-22T05:26:59.038Z,1.93
2017-11-22T05:29:29.902Z,2.00
2017-11-22T05:32:00.745Z,2.13
2017-11-22T05:34:31.612Z,2.23
2017-11-22T05:37:02.459Z,2.40
2017-11-22T05:39:33.328Z,1.97
2017-11-22T05:42:04.193Z,2.00
2017-11-22T05:44:35.028Z,2.40
2017-11-22T05:47:05.877Z,1.60
2017-11-22T05:49:36.730Z,1.30
2017-11-22T05:52:07.593Z,2.03
2017-11-22T05:54:38.433Z,1.73
2017-11-22T05:57:09.293Z,1.97
2017-11-22T05:59:40.136Z,2.00
2017-11-22T06:02:10.993Z,1.70
2017-11-22T06:04:41.828Z,1.50
2017-11-22T06:07:12.648Z,2.07
2017-11-22T06:09:43.484Z,1.83
2017-11-22T06:12:14.320Z,1.83
2017-11-22T06:14:45.169Z,1.43
2017-11-22T06:17:16.021Z,1.93
2017-11-22T06:19:46.890Z,1.93
2017-11-22T06:22:17.743Z,1.80
2017-11-22T06:24:48.596Z,1.90
2017-11-22T06:27:19.463Z,1.90
2017-11-22T06:29:50.316Z,1.63
2017-11-22T06:32:21.178Z,1.83
2017-11-22T06:34:52.018Z,1.83
2017-11-22T06:37:22.880Z,1.77
2017-11-22T06:39:53.731Z,1.70
2017-11-22T06:42:24.601Z,2.10
2017-11-22T06:44:55.447Z,1.30
2017-11-22T06:47:26.309Z,1.60
2017-11-22T06:49:57.141Z,1.50
2017-11-22T06:52:27.984Z,1.87
2017-11-22T06:54:58.822Z,2.17
2017-11-22T06:57:29.685Z,1.67
2017-11-22T07:00:00.537Z,1.80
2017-11-22T07:02:31.403Z,1.90
2017-11-22T07:05:02.255Z,1.90
2017-11-22T07:07:33.206Z,1.20
2017-11-22T07:10:04.033Z,1.57
2017-11-22T07:12:34.861Z,1.90
2017-11-22T07:15:05.672Z,1.70
2017-11-22T07:17:36.510Z,1.27
2017-11-22T07:20:07.372Z,1.87
2017-11-22T07:22:38.606Z,1.60
2017-11-22T07:25:09.446Z,1.70
2017-11-22T07:27:40.277Z,1.47
2017-11-22T07:30:11.136Z,2.10
2017-11-22T07:32:41.986Z,1.63
2017-11-22T07:35:12.842Z,1.73
2017-11-22T07:37:43.668Z,1.50
2017-11-22T07:40:14.516Z,1.13
2017-11-22T07:42:45.391Z,1.47
2017-11-22T07:45:16.256Z,1.40
2017-11-22T07:47:47.104Z,1.90
2017-11-22T07:50:18.005Z,1.67
2017-11-22T07:52:48.868Z,1.50
2017-11-22T07:55:19.702Z,1.77
2017-11-22T07:57:50.570Z,1.70
2017-11-22T08:00:21.413Z,1.77
2017-11-22T08:02:52.295Z,1.80
2017-11-22T08:05:23.136Z,1.77
2017-11-22T08:07:53.966Z,1.70
2017-11-22T08:10:24.783Z,2.00
2017-11-22T08:12:55.640Z,2.03
2017-11-22T08:15:26.497Z,1.47
2017-11-22T08:17:57.373Z,1.93
2017-11-22T08:20:28.212Z,1.90
2017-11-22T08:22:59.073Z,1.77
2017-11-22T08:25:29.926Z,1.87
2017-11-22T08:28:00.772Z,1.63
2017-11-22T08:30:31.633Z,1.80
2017-11-22T08:33:02.481Z,1.40
2017-11-22T08:35:33.349Z,1.67
2017-11-22T08:38:04.225Z,1.80
2017-11-22T08:40:35.076Z,1.97
2017-11-22T08:43:05.912Z,1.63
2017-11-22T08:45:36.770Z,2.20
2017-11-22T08:48:07.622Z,2.63
2017-11-22T08:50:38.469Z,2.00
2017-11-22T08:53:09.341Z,2.00
2017-11-22T08:55:40.184Z,2.40
2017-11-22T08:58:11.051Z,12.93
2017-11-22T09:00:41.917Z,13.63
2017-11-22T09:03:12.772Z,14.07
2017-11-22T09:05:43.640Z,16.47
2017-11-22T09:08:14.503Z,16.10
2017-11-22T09:10:45.475Z,16.63
2017-11-22T09:13:16.316Z,14.40
2017-11-22T09:15:47.160Z,14.70
2017-11-22T09:18:18.077Z,15.23
2017-11-22T09:20:49.017Z,12.33
2017-11-22T09:23:19.862Z,11.30
2017-11-22T09:25:50.729Z,11.70
2017-11-22T09:28:21.605Z,11.43
2017-11-22T09:30:52.459Z,12.00
2017-11-22T09:33:23.329Z,12.10
2017-11-22T09:35:54.203Z,11.17
2017-11-22T09:38:25.038Z,11.10
2017-11-22T09:40:55.910Z,10.90
2017-11-22T09:43:26.740Z,10.73
2017-11-22T09:45:57.587Z,11.07
2017-11-22T09:48:28.449Z,11.63
2017-11-22T09:50:59.344Z,10.20
2017-11-22T09:53:30.203Z,10.37
2017-11-22T09:56:01.070Z,11.30
2017-11-22T09:58:31.908Z,12.40
2017-11-22T10:01:02.780Z,11.77
2017-11-22T10:03:33.736Z,11.57
2017-11-22T10:06:04.561Z,10.40
2017-11-22T10:08:35.413Z,10.10
2017-11-22T10:11:06.268Z,9.77
2017-11-22T10:13:37.202Z,10.30
2017-11-22T10:16:08.032Z,10.90
2017-11-22T10:18:38.863Z,10.70
2017-11-22T10:21:09.702Z,10.90
2017-11-22T10:23:40.563Z,9.77
2017-11-22T10:26:11.440Z,13.00
2017-11-22T10:28:42.285Z,11.87
2017-11-22T10:31:13.282Z,11.03
2017-11-22T10:33:44.137Z,10.43
2017-11-22T10:36:14.986Z,9.93
2017-11-22T10:38:45.877Z,9.77
2017-11-22T10:41:16.733Z,11.33
2017-11-22T10:43:47.613Z,13.00
2017-11-22T10:46:18.461Z,13.43
2017-11-22T10:48:49.318Z,14.10
2017-11-22T10:51:20.184Z,12.40
2017-11-22T10:53:51.042Z,13.07
2017-11-22T10:56:21.914Z,12.30
2017-11-22T10:58:52.771Z,12.43
2017-11-22T11:01:23.640Z,13.63
2017-11-22T11:03:54.502Z,12.90
2017-11-22T11:06:25.361Z,13.73
2017-11-22T11:08:56.215Z,14.43
2017-11-22T11:11:27.089Z,15.30
2017-11-22T11:13:57.943Z,17.13
2017-11-22T11:16:28.808Z,15.97
2017-11-22T11:18:59.664Z,14.97
2017-11-22T11:21:30.510Z,16.80
2017-11-22T11:24:01.377Z,16.33
2017-11-22T11:26:32.214Z,17.20
2017-11-22T11:29:03.085Z,17.43
2017-11-22T11:31:33.947Z,16.90
2017-11-22T11:34:04.775Z,16.63
2017-11-22T11:36:35.645Z,18.13
2017-11-22T11:39:06.572Z,17.47
2017-11-22T11:41:37.412Z,17.40
2017-11-22T11:44:08.264Z,19.23
2017-11-22T11:46:39.143Z,17.40
2017-11-22T11:49:09.989Z,17.13
2017-11-22T11:51:40.860Z,18.10
2017-11-22T11:54:11.711Z,16.60
2017-11-22T11:56:42.571Z,16.73
2017-11-22T11:59:13.457Z,17.73
2017-11-22T12:01:44.328Z,15.90
2017-11-22T12:04:15.209Z,17.53
2017-11-22T12:06:46.045Z,16.73
2017-11-22T12:09:16.924Z,16.27
2017-11-22T12:11:47.887Z,16.27
2017-11-22T12:14:18.730Z,15.20
2017-11-22T12:16:49.560Z,16.80
2017-11-22T12:19:20.427Z,16.53
2017-11-22T12:21:51.267Z,15.40
2017-11-22T12:24:22.162Z,16.87
2017-11-22T12:26:53.009Z,15.57
2017-11-22T12:29:23.880Z,16.20
2017-11-22T12:31:54.724Z,17.07
2017-11-22T12:34:25.598Z,15.97
2017-11-22T12:36:56.461Z,15.10
2017-11-22T12:39:27.333Z,15.80
2017-11-22T12:41:58.197Z,14.73
2017-11-22T12:44:29.033Z,15.00
2017-11-22T12:46:59.900Z,15.10
2017-11-22T12:49:30.757Z,15.57
2017-11-22T12:52:01.648Z,13.87
2017-11-22T12:54:32.522Z,14.70
2017-11-22T12:57:03.384Z,14.33
2017-11-22T12:59:34.304Z,13.90
2017-11-22T13:02:05.135Z,14.23
2017-11-22T13:04:35.991Z,13.50
2017-11-22T13:07:06.868Z,14.23
2017-11-22T13:09:37.737Z,12.27
2017-11-22T13:12:08.591Z,14.00
2017-11-22T13:14:39.469Z,14.17
2017-11-22T13:17:10.313Z,14.43
2017-11-22T13:19:41.193Z,14.27
2017-11-22T13:22:12.042Z,12.33
2017-11-22T13:24:42.921Z,14.43
2017-11-22T13:27:13.777Z,13.37
2017-11-22T13:29:44.628Z,12.47
2017-11-22T13:32:15.482Z,13.13
2017-11-22T13:34:46.353Z,12.47
2017-11-22T13:37:17.215Z,13.13
2017-11-22T13:39:48.057Z,11.97
2017-11-22T13:42:18.936Z,12.37
2017-11-22T13:44:49.783Z,12.50
2017-11-22T13:47:20.645Z,12.07
2017-11-22T13:49:51.492Z,12.30
2017-11-22T13:52:22.362Z,12.20
2017-11-22T13:54:53.204Z,11.70
2017-11-22T13:57:24.080Z,12.53
2017-11-22T13:59:54.918Z,11.40
2017-11-22T14:02:25.798Z,13.27
2017-11-22T14:04:56.648Z,12.47
2017-11-22T14:07:27.572Z,12.20
2017-11-22T14:09:58.411Z,11.33
2017-11-22T14:12:29.270Z,11.73
2017-11-22T14:15:00.151Z,12.77
2017-11-22T14:17:30.983Z,11.60
2017-11-22T14:20:01.880Z,10.53
2017-11-22T14:22:32.857Z,11.30
2017-11-22T14:25:03.711Z,12.77
2017-11-22T14:27:34.556Z,11.73
2017-11-22T14:30:05.449Z,10.93
2017-11-22T14:32:36.295Z,10.80
2017-11-22T14:35:07.160Z,11.07
2017-11-22T14:37:38.043Z,10.30
2017-11-22T14:40:08.896Z,11.03
2017-11-22T14:42:39.741Z,11.23
2017-11-22T14:45:10.599Z,10.50
2017-11-22T14:47:41.438Z,11.43
2017-11-22T14:50:12.301Z,11.07
2017-11-22T14:52:43.152Z,10.30
2017-11-22T14:55:14.013Z,10.83
2017-11-22T14:57:44.869Z,11.87
2017-11-22T15:00:15.732Z,9.70
2017-11-22T15:02:46.570Z,11.03
2017-11-22T15:05:17.452Z,10.70
2017-11-22T15:07:48.293Z,9.83
2017-11-22T15:10:19.178Z,10.40
2017-11-22T15:12:50.022Z,10.03
2017-11-22T15:15:20.897Z,9.80
2017-11-22T15:17:51.756Z,10.20
2017-11-22T15:20:22.700Z,9.47
2017-11-22T15:22:53.542Z,9.60
2017-11-22T15:25:24.386Z,8.57
2017-11-22T15:27:55.263Z,9.30
2017-11-22T15:30:26.145Z,9.30
2017-11-22T15:32:57.013Z,9.93
2017-11-22T15:35:27.853Z,9.70
2017-11-22T15:37:58.727Z,9.40
2017-11-22T15:40:29.573Z,8.60
2017-11-22T15:43:00.567Z,8.00
2017-11-22T15:45:31.425Z,9.35
2017-11-22T15:48:02.278Z,7.83
2017-11-22T15:50:33.137Z,8.40
2017-11-22T15:53:04.030Z,9.27
2017-11-22T15:55:34.894Z,8.30
2017-11-22T15:58:05.767Z,7.80
2017-11-22T16:00:36.641Z,9.37
2017-11-22T16:03:07.505Z,8.47
2017-11-22T16:05:38.374Z,8.77
2017-11-22T16:08:09.245Z,7.93
2017-11-22T16:10:40.113Z,9.07
2017-11-22T16:13:10.990Z,8.90
2017-11-22T16:15:41.837Z,8.30
2017-11-22T16:18:12.705Z,8.53
2017-11-22T16:20:43.564Z,7.77
2017-11-22T16:23:14.440Z,7.80
2017-11-22T16:25:45.313Z,7.37
2017-11-22T16:28:16.159Z,8.53
2017-11-22T16:30:47.029Z,8.30
2017-11-22T16:33:17.885Z,8.80
2017-11-22T16:35:48.727Z,8.13
2017-11-22T16:38:19.580Z,8.20
2017-11-22T16:40:50.470Z,8.13
2017-11-22T16:43:21.304Z,8.07
2017-11-22T16:45:52.146Z,7.30
2017-11-22T16:48:23.015Z,7.70
2017-11-22T16:50:53.872Z,8.00
2017-11-22T16:53:24.760Z,8.13
2017-11-22T16:55:55.606Z,7.50
2017-11-22T16:58:26.462Z,8.80
2017-11-22T17:00:57.325Z,7.03
2017-11-22T17:03:28.199Z,8.93
2017-11-22T17:05:59.053Z,7.90
2017-11-22T17:08:29.904Z,7.47
2017-11-22T17:11:00.792Z,7.03
2017-11-22T17:13:31.636Z,8.03
2017-11-22T17:16:02.506Z,6.80
2017-11-22T17:18:33.351Z,7.27
2017-11-22T17:21:04.340Z,6.67
2017-11-22T17:23:35.177Z,6.53
2017-11-22T17:26:06.043Z,6.23
2017-11-22T17:28:36.880Z,7.10
2017-11-22T17:31:07.751Z,6.20
2017-11-22T17:33:38.723Z,6.20
2017-11-22T17:36:09.570Z,6.23
2017-11-22T17:38:40.435Z,6.30
2017-11-22T17:41:11.293Z,7.30
2017-11-22T17:43:42.137Z,7.00
2017-11-22T17:46:13.025Z,6.80
2017-11-22T17:48:43.866Z,6.20
2017-11-22T17:51:14.758Z,6.40
2017-11-22T17:53:45.628Z,5.80
2017-11-22T17:56:16.524Z,5.93
2017-11-22T17:58:47.392Z,6.30
2017-11-22T18:01:18.263Z,6.50
2017-11-22T18:03:49.110Z,6.57
2017-11-22T18:06:19.980Z,6.27
2017-11-22T18:08:50.833Z,7.00
2017-11-22T18:11:21.724Z,6.50
2017-11-22T18:13:52.605Z,6.07
2017-11-22T18:16:23.436Z,5.87
2017-11-22T18:18:54.317Z,6.37
2017-11-22T18:21:25.156Z,6.53
2017-11-22T18:23:56.022Z,6.50
2017-11-22T18:26:26.881Z,5.97
2017-11-22T18:28:57.736Z,6.40
2017-11-22T18:31:28.598Z,5.80
2017-11-22T18:33:59.464Z,6.20
2017-11-22T18:36:30.324Z,6.70
2017-11-22T18:39:01.183Z,5.17
2017-11-22T18:41:32.064Z,6.00
2017-11-22T18:44:02.928Z,5.73
2017-11-22T18:46:33.790Z,5.90
2017-11-22T18:49:04.677Z,4.77
2017-11-22T18:51:35.560Z,5.73
2017-11-22T18:54:06.408Z,5.67
2017-11-22T18:56:37.308Z,6.10
2017-11-22T18:59:08.140Z,6.10
2017-11-22T19:01:38.999Z,5.37
2017-11-22T19:04:09.889Z,5.87
2017-11-22T19:06:40.777Z,5.80
2017-11-22T19:09:11.645Z,5.30
2017-11-22T19:11:42.517Z,5.87
2017-11-22T19:14:13.456Z,4.40
2017-11-22T19:16:44.288Z,5.10
2017-11-22T19:19:15.193Z,5.30
2017-11-22T19:21:46.043Z,5.20
2017-11-22T19:24:16.922Z,5.30
2017-11-22T19:26:47.807Z,5.37
2017-11-22T19:29:18.708Z,5.97
2017-11-22T19:31:49.597Z,5.60
2017-11-22T19:34:20.457Z,5.17
2017-11-22T19:36:51.318Z,5.83
2017-11-22T19:39:22.233Z,4.63
2017-11-22T19:41:53.079Z,5.70
2017-11-22T19:44:23.957Z,5.47
2017-11-22T19:46:54.805Z,5.03
2017-11-22T19:49:25.681Z,5.03
2017-11-22T19:51:56.560Z,5.23
2017-11-22T19:54:27.445Z,4.77
2017-11-22T19:56:58.346Z,5.20
2017-11-22T19:59:29.335Z,4.60
2017-11-22T20:02:00.210Z,4.47
2017-11-22T20:04:31.112Z,5.57
2017-11-22T20:07:01.976Z,5.13
2017-11-22T20:09:32.874Z,4.80
2017-11-22T20:12:03.767Z,4.50
2017-11-22T20:14:34.662Z,4.57
2017-11-22T20:17:05.538Z,4.60
2017-11-22T20:19:36.403Z,5.23
2017-11-22T20:22:07.258Z,4.33
2017-11-22T20:24:38.146Z,4.57
2017-11-22T20:27:09.042Z,4.70
2017-11-22T20:29:39.893Z,4.60
2017-11-22T20:32:10.828Z,3.90
2017-11-22T20:34:41.796Z,4.13
2017-11-22T20:37:12.647Z,7.00
2017-11-22T20:39:43.516Z,6.80
2017-11-22T20:42:14.373Z,6.30
2017-11-22T20:44:45.288Z,7.00
2017-11-22T20:47:16.181Z,5.90
2017-11-22T20:49:47.052Z,6.20
2017-11-22T20:52:17.905Z,7.00
2017-11-22T20:54:48.804Z,6.37
2017-11-22T20:57:19.681Z,6.00
2017-11-22T20:59:50.656Z,5.80
2017-11-22T21:02:21.512Z,6.60
2017-11-22T21:04:52.432Z,6.00
2017-11-22T21:07:23.306Z,6.10
2017-11-22T21:09:54.192Z,6.70
2017-11-22T21:12:25.068Z,6.10
2017-11-22T21:14:55.925Z,6.60
2017-11-22T21:17:26.814Z,5.97
2017-11-22T21:19:57.675Z,5.93
2017-11-22T21:22:28.584Z,6.77
2017-11-22T21:24:59.437Z,7.97
2017-11-22T21:27:30.317Z,7.63
2017-11-22T21:30:01.214Z,6.70
2017-11-22T21:32:32.070Z,8.00
2017-11-22T21:35:02.990Z,8.17
2017-11-22T21:37:33.894Z,9.00
2017-11-22T21:40:04.775Z,9.40
2017-11-22T21:42:35.695Z,8.43
2017-11-22T21:45:06.579Z,9.00
2017-11-22T21:47:37.425Z,8.20
2017-11-22T21:50:08.323Z,8.60
2017-11-22T21:52:39.176Z,8.73
2017-11-22T21:55:10.104Z,8.07
2017-11-22T21:57:40.946Z,8.50
2017-11-22T22:00:11.857Z,8.57
2017-11-22T22:02:42.708Z,8.47
2017-11-22T22:05:13.585Z,7.50
2017-11-22T22:07:44.439Z,8.60
2017-11-22T22:10:15.300Z,8.33
2017-11-22T22:12:46.162Z,7.63
2017-11-22T22:15:17.025Z,8.40
2017-11-22T22:17:47.879Z,8.53
2017-11-22T22:20:18.888Z,8.47
2017-11-22T22:22:49.745Z,5.87
2017-11-22T22:25:20.760Z,7.63
2017-11-22T22:27:51.628Z,7.40
2017-11-22T22:30:22.489Z,7.20
2017-11-22T22:32:53.329Z,6.20
2017-11-22T22:35:24.222Z,5.60
2017-11-22T22:37:55.083Z,6.07
2017-11-22T22:40:25.956Z,6.40
2017-11-22T22:42:57.678Z,5.75
2017-11-22T22:45:28.537Z,6.00
2017-11-22T22:47:59.406Z,6.67
2017-11-22T22:50:30.275Z,5.37
2017-11-22T22:53:01.151Z,5.93
2017-11-22T22:55:32.005Z,6.00
2017-11-22T22:58:02.873Z,5.90
2017-11-22T23:00:33.708Z,5.57
2017-11-22T23:03:04.583Z,5.80
2017-11-22T23:05:35.454Z,5.40
2017-11-22T23:08:06.338Z,4.90
2017-11-22T23:10:37.214Z,5.23
2017-11-22T23:13:08.078Z,5.67
2017-11-22T23:15:38.933Z,5.47
2017-11-22T23:18:09.802Z,5.20
2017-11-22T23:20:40.690Z,4.83
2017-11-22T23:23:11.532Z,5.13
2017-11-22T23:25:42.392Z,4.80
2017-11-22T23:28:13.264Z,5.40
2017-11-22T23:30:44.113Z,4.60
2017-11-22T23:33:15.100Z,5.50
2017-11-22T23:35:45.942Z,5.33
2017-11-22T23:38:16.805Z,4.60
2017-11-22T23:40:47.666Z,4.73
2017-11-22T23:43:18.509Z,4.83
2017-11-22T23:45:49.402Z,5.00
2017-11-22T23:48:20.250Z,4.60
2017-11-22T23:50:51.113Z,4.00
2017-11-22T23:53:21.976Z,4.57
2017-11-22T23:55:52.844Z,4.50
2017-11-22T23:58:23.704Z,4.27
